Penryn, Pennsylvania
Current Conditions -  °F | °C
As of 3:53 PM on Thursday 23 Oct 2014 (Local Time) from KLNS Reporting Station
Overcast Overcast  
Wind Chill: 57°   Ceiling: 3200
Heat Index: 57°   Visibility: 10mi
Dew Point: 44°   Wind: 12mph
Humidity: 62%   Direction: 330°NNW
Pressure: 29.82"   Gusts: NA
Location:  40.2°N, 76.37°W
Report Text: KLNS 231953Z 33010KT 10SM OVC032 14/07 A2982 RMK AO2 SLP099 T01390067
Loading
Personal Weather Stations






























Interactive Weather Map New forecast layout! Learn more

10-Day Weather Forecast

Advertisements
Track Severe Weather on mobile